sensor_id;sensor_type;location;lat;lon;timestamp;P1;durP1;ratioP1;P2;durP2;ratioP2
6941;SDS011;3510;43.200;27.920;2023-05-10T00:21:24;5.00;;;4.60;;
6941;SDS011;3510;43.200;27.920;2023-05-10T00:23:53;2.87;;;2.67;;
6941;SDS011;3510;43.200;27.920;2023-05-10T00:26:20;4.33;;;4.00;;
6941;SDS011;3510;43.200;27.920;2023-05-10T00:28:47;5.37;;;4.87;;
6941;SDS011;3510;43.200;27.920;2023-05-10T00:31:14;4.60;;;4.03;;
6941;SDS011;3510;43.200;27.920;2023-05-10T00:33:44;4.47;;;4.07;;
6941;SDS011;3510;43.200;27.920;2023-05-10T00:36:11;4.07;;;3.83;;
6941;SDS011;3510;43.200;27.920;2023-05-10T00:38:38;4.57;;;4.17;;
6941;SDS011;3510;43.200;27.920;2023-05-10T00:41:05;4.17;;;3.77;;
6941;SDS011;3510;43.200;27.920;2023-05-10T00:43:33;3.83;;;3.53;;
6941;SDS011;3510;43.200;27.920;2023-05-10T00:45:59;3.67;;;3.37;;
6941;SDS011;3510;43.200;27.920;2023-05-10T00:48:27;4.60;;;4.30;;
6941;SDS011;3510;43.200;27.920;2023-05-10T00:50:55;7.33;;;4.03;;
6941;SDS011;3510;43.200;27.920;2023-05-10T00:53:22;4.37;;;4.07;;
6941;SDS011;3510;43.200;27.920;2023-05-10T00:55:49;5.23;;;4.07;;
6941;SDS011;3510;43.200;27.920;2023-05-10T00:58:16;4.17;;;3.90;;
6941;SDS011;3510;43.200;27.920;2023-05-10T01:00:43;3.73;;;3.43;;
6941;SDS011;3510;43.200;27.920;2023-05-10T01:03:12;4.07;;;3.87;;
6941;SDS011;3510;43.200;27.920;2023-05-10T01:05:40;3.60;;;3.30;;
6941;SDS011;3510;43.200;27.920;2023-05-10T01:08:08;4.90;;;3.70;;
6941;SDS011;3510;43.200;27.920;2023-05-10T01:10:38;3.90;;;3.57;;
6941;SDS011;3510;43.200;27.920;2023-05-10T01:13:05;3.53;;;3.23;;
6941;SDS011;3510;43.200;27.920;2023-05-10T01:15:32;3.40;;;2.57;;
6941;SDS011;3510;43.200;27.920;2023-05-10T01:17:58;1.97;;;1.87;;
6941;SDS011;3510;43.200;27.920;2023-05-10T01:30:01;4.70;;;4.30;;
6941;SDS011;3510;43.200;27.920;2023-05-10T01:35:50;3.43;;;3.13;;
6941;SDS011;3510;43.200;27.920;2023-05-10T01:38:23;4.50;;;4.20;;
6941;SDS011;3510;43.200;27.920;2023-05-10T01:41:11;3.90;;;3.37;;
6941;SDS011;3510;43.200;27.920;2023-05-10T01:43:44;4.23;;;3.93;;
6941;SDS011;3510;43.200;27.920;2023-05-10T01:46:35;3.73;;;3.53;;
6941;SDS011;3510;43.200;27.920;2023-05-10T01:49:18;4.43;;;4.13;;
6941;SDS011;3510;43.200;27.920;2023-05-10T01:51:52;6.37;;;4.53;;
6941;SDS011;3510;43.200;27.920;2023-05-10T01:54:24;4.93;;;4.47;;
6941;SDS011;3510;43.200;27.920;2023-05-10T01:57:01;4.73;;;4.40;;
6941;SDS011;3510;43.200;27.920;2023-05-10T01:59:33;5.55;;;5.05;;
6941;SDS011;3510;43.200;27.920;2023-05-10T02:02:04;3.00;;;2.80;;
6941;SDS011;3510;43.200;27.920;2023-05-10T02:04:32;1.87;;;1.77;;
6941;SDS011;3510;43.200;27.920;2023-05-10T02:16:08;4.07;;;3.83;;
6941;SDS011;3510;43.200;27.920;2023-05-10T02:18:36;4.00;;;3.70;;
6941;SDS011;3510;43.200;27.920;2023-05-10T02:21:05;3.97;;;3.50;;
6941;SDS011;3510;43.200;27.920;2023-05-10T02:23:34;1.50;;;1.30;;
6941;SDS011;3510;43.200;27.920;2023-05-10T02:26:02;1.70;;;1.60;;
6941;SDS011;3510;43.200;27.920;2023-05-10T02:28:31;1.80;;;1.70;;
6941;SDS011;3510;43.200;27.920;2023-05-10T02:31:01;3.03;;;2.77;;
6941;SDS011;3510;43.200;27.920;2023-05-10T02:33:29;6.87;;;4.53;;
6941;SDS011;3510;43.200;27.920;2023-05-10T02:35:57;2.83;;;1.70;;
6941;SDS011;3510;43.200;27.920;2023-05-10T02:38:25;3.57;;;2.80;;
6941;SDS011;3510;43.200;27.920;2023-05-10T02:40:53;2.40;;;2.20;;
6941;SDS011;3510;43.200;27.920;2023-05-10T02:43:21;5.37;;;4.93;;
6941;SDS011;3510;43.200;27.920;2023-05-10T02:45:49;4.70;;;2.07;;
6941;SDS011;3510;43.200;27.920;2023-05-10T02:48:18;2.93;;;2.60;;
6941;SDS011;3510;43.200;27.920;2023-05-10T02:50:45;3.60;;;2.57;;
6941;SDS011;3510;43.200;27.920;2023-05-10T02:53:18;2.97;;;2.77;;
6941;SDS011;3510;43.200;27.920;2023-05-10T02:55:53;2.03;;;1.93;;
6941;SDS011;3510;43.200;27.920;2023-05-10T02:58:24;4.63;;;4.23;;
6941;SDS011;3510;43.200;27.920;2023-05-10T03:00:51;3.37;;;2.83;;
6941;SDS011;3510;43.200;27.920;2023-05-10T03:03:20;2.23;;;2.13;;
6941;SDS011;3510;43.200;27.920;2023-05-10T03:05:47;2.47;;;2.30;;
6941;SDS011;3510;43.200;27.920;2023-05-10T03:08:14;2.73;;;2.53;;
6941;SDS011;3510;43.200;27.920;2023-05-10T03:10:47;4.07;;;2.93;;
6941;SDS011;3510;43.200;27.920;2023-05-10T03:13:27;2.13;;;2.03;;
6941;SDS011;3510;43.200;27.920;2023-05-10T03:16:03;2.47;;;2.27;;
6941;SDS011;3510;43.200;27.920;2023-05-10T03:18:36;3.33;;;2.57;;
6941;SDS011;3510;43.200;27.920;2023-05-10T03:21:10;2.07;;;1.93;;
6941;SDS011;3510;43.200;27.920;2023-05-10T03:23:41;2.27;;;2.07;;
6941;SDS011;3510;43.200;27.920;2023-05-10T03:26:14;2.37;;;2.17;;
6941;SDS011;3510;43.200;27.920;2023-05-10T03:28:47;1.90;;;1.80;;
6941;SDS011;3510;43.200;27.920;2023-05-10T03:31:14;2.07;;;1.97;;
6941;SDS011;3510;43.200;27.920;2023-05-10T03:33:51;2.90;;;2.40;;
6941;SDS011;3510;43.200;27.920;2023-05-10T07:07:45;2.63;;;1.55;;
6941;SDS011;3510;43.200;27.920;2023-05-10T07:10:12;0.93;;;0.93;;
6941;SDS011;3510;43.200;27.920;2023-05-10T07:12:40;1.70;;;1.42;;
6941;SDS011;3510;43.200;27.920;2023-05-10T07:15:07;1.50;;;1.40;;
6941;SDS011;3510;43.200;27.920;2023-05-10T07:20:07;1.60;;;1.50;;
6941;SDS011;3510;43.200;27.920;2023-05-10T07:22:34;2.13;;;1.60;;
6941;SDS011;3510;43.200;27.920;2023-05-10T07:25:01;2.00;;;1.77;;
6941;SDS011;3510;43.200;27.920;2023-05-10T07:27:44;2.65;;;1.60;;
6941;SDS011;3510;43.200;27.920;2023-05-10T07:30:13;1.52;;;1.42;;
6941;SDS011;3510;43.200;27.920;2023-05-10T07:32:40;1.58;;;1.33;;
6941;SDS011;3510;43.200;27.920;2023-05-10T07:35:21;1.48;;;1.38;;
6941;SDS011;3510;43.200;27.920;2023-05-10T07:37:48;4.03;;;2.13;;
6941;SDS011;3510;43.200;27.920;2023-05-10T07:40:15;2.50;;;2.30;;
6941;SDS011;3510;43.200;27.920;2023-05-10T07:42:43;5.38;;;2.42;;
6941;SDS011;3510;43.200;27.920;2023-05-10T07:45:10;1.67;;;1.58;;
6941;SDS011;3510;43.200;27.920;2023-05-10T07:47:37;1.20;;;1.20;;
6941;SDS011;3510;43.200;27.920;2023-05-10T07:50:04;1.55;;;1.52;;
6941;SDS011;3510;43.200;27.920;2023-05-10T07:52:31;0.98;;;0.98;;
6941;SDS011;3510;43.200;27.920;2023-05-10T07:54:58;1.90;;;1.80;;
6941;SDS011;3510;43.200;27.920;2023-05-10T07:57:24;3.45;;;2.60;;
6941;SDS011;3510;43.200;27.920;2023-05-10T07:59:53;1.95;;;1.63;;
6941;SDS011;3510;43.200;27.920;2023-05-10T08:02:19;2.15;;;1.45;;
6941;SDS011;3510;43.200;27.920;2023-05-10T08:04:46;1.50;;;1.50;;
6941;SDS011;3510;43.200;27.920;2023-05-10T08:07:16;2.45;;;2.20;;
6941;SDS011;3510;43.200;27.920;2023-05-10T08:09:43;1.50;;;1.40;;
6941;SDS011;3510;43.200;27.920;2023-05-10T08:12:10;3.45;;;2.10;;
6941;SDS011;3510;43.200;27.920;2023-05-10T08:14:37;1.73;;;1.63;;
6941;SDS011;3510;43.200;27.920;2023-05-10T08:17:19;1.63;;;1.52;;
6941;SDS011;3510;43.200;27.920;2023-05-10T08:19:46;1.85;;;1.75;;
6941;SDS011;3510;43.200;27.920;2023-05-10T08:22:16;1.48;;;1.38;;
6941;SDS011;3510;43.200;27.920;2023-05-10T08:24:43;1.83;;;1.73;;
6941;SDS011;3510;43.200;27.920;2023-05-10T08:27:10;1.60;;;1.50;;
6941;SDS011;3510;43.200;27.920;2023-05-10T08:29:37;2.08;;;1.73;;
6941;SDS011;3510;43.200;27.920;2023-05-10T08:32:04;1.85;;;1.75;;
6941;SDS011;3510;43.200;27.920;2023-05-10T08:34:32;1.73;;;1.63;;
6941;SDS011;3510;43.200;27.920;2023-05-10T08:36:59;1.60;;;1.60;;
6941;SDS011;3510;43.200;27.920;2023-05-10T08:39:25;1.45;;;1.35;;
6941;SDS011;3510;43.200;27.920;2023-05-10T08:41:53;1.60;;;1.50;;
6941;SDS011;3510;43.200;27.920;2023-05-10T08:44:23;1.23;;;1.23;;
6941;SDS011;3510;43.200;27.920;2023-05-10T08:46:51;1.02;;;1.02;;
6941;SDS011;3510;43.200;27.920;2023-05-10T08:49:21;1.27;;;1.27;;
6941;SDS011;3510;43.200;27.920;2023-05-10T08:51:51;0.90;;;0.90;;
6941;SDS011;3510;43.200;27.920;2023-05-10T08:54:21;1.23;;;1.23;;
6941;SDS011;3510;43.200;27.920;2023-05-10T08:56:48;1.60;;;1.50;;
6941;SDS011;3510;43.200;27.920;2023-05-10T08:59:14;6.65;;;1.50;;
6941;SDS011;3510;43.200;27.920;2023-05-10T09:01:42;1.45;;;1.45;;
6941;SDS011;3510;43.200;27.920;2023-05-10T09:04:11;1.92;;;1.80;;
6941;SDS011;3510;43.200;27.920;2023-05-10T09:06:38;1.67;;;1.58;;
6941;SDS011;3510;43.200;27.920;2023-05-10T09:09:06;1.35;;;1.25;;
6941;SDS011;3510;43.200;27.920;2023-05-10T09:11:33;1.35;;;1.25;;
6941;SDS011;3510;43.200;27.920;2023-05-10T09:14:00;1.75;;;1.40;;
6941;SDS011;3510;43.200;27.920;2023-05-10T09:16:27;1.30;;;1.30;;
6941;SDS011;3510;43.200;27.920;2023-05-10T09:18:55;5.05;;;1.77;;
6941;SDS011;3510;43.200;27.920;2023-05-10T09:21:22;2.28;;;1.33;;
6941;SDS011;3510;43.200;27.920;2023-05-10T09:23:49;1.50;;;1.40;;
6941;SDS011;3510;43.200;27.920;2023-05-10T09:26:23;2.22;;;1.45;;
6941;SDS011;3510;43.200;27.920;2023-05-10T09:28:50;1.30;;;1.30;;
6941;SDS011;3510;43.200;27.920;2023-05-10T09:31:19;1.40;;;1.40;;
6941;SDS011;3510;43.200;27.920;2023-05-10T09:33:47;1.95;;;1.70;;
6941;SDS011;3510;43.200;27.920;2023-05-10T09:36:15;1.15;;;1.15;;
6941;SDS011;3510;43.200;27.920;2023-05-10T09:38:46;2.35;;;1.55;;
6941;SDS011;3510;43.200;27.920;2023-05-10T09:41:15;1.50;;;1.40;;
6941;SDS011;3510;43.200;27.920;2023-05-10T09:43:44;1.08;;;1.08;;
6941;SDS011;3510;43.200;27.920;2023-05-10T09:46:11;1.75;;;1.65;;
6941;SDS011;3510;43.200;27.920;2023-05-10T09:48:41;3.00;;;1.67;;
6941;SDS011;3510;43.200;27.920;2023-05-10T09:51:09;1.38;;;1.33;;
6941;SDS011;3510;43.200;27.920;2023-05-10T09:53:36;1.15;;;1.15;;
6941;SDS011;3510;43.200;27.920;2023-05-10T09:56:03;1.40;;;1.35;;
6941;SDS011;3510;43.200;27.920;2023-05-10T09:58:30;1.63;;;1.52;;
6941;SDS011;3510;43.200;27.920;2023-05-10T10:00:58;1.38;;;1.27;;
6941;SDS011;3510;43.200;27.920;2023-05-10T10:03:25;1.20;;;1.20;;
6941;SDS011;3510;43.200;27.920;2023-05-10T10:05:52;1.52;;;1.45;;
6941;SDS011;3510;43.200;27.920;2023-05-10T10:08:21;1.10;;;1.10;;
6941;SDS011;3510;43.200;27.920;2023-05-10T10:10:48;1.52;;;1.42;;
6941;SDS011;3510;43.200;27.920;2023-05-10T10:13:15;2.08;;;1.88;;
6941;SDS011;3510;43.200;27.920;2023-05-10T10:15:47;1.73;;;1.30;;
6941;SDS011;3510;43.200;27.920;2023-05-10T10:18:18;1.10;;;1.10;;
6941;SDS011;3510;43.200;27.920;2023-05-10T10:20:52;2.95;;;1.55;;
6941;SDS011;3510;43.200;27.920;2023-05-10T10:23:20;1.50;;;1.40;;
6941;SDS011;3510;43.200;27.920;2023-05-10T10:25:47;3.00;;;1.83;;
6941;SDS011;3510;43.200;27.920;2023-05-10T10:28:17;2.33;;;1.42;;
6941;SDS011;3510;43.200;27.920;2023-05-10T10:30:51;1.58;;;1.58;;
6941;SDS011;3510;43.200;27.920;2023-05-10T10:33:30;1.60;;;1.50;;
6941;SDS011;3510;43.200;27.920;2023-05-10T10:36:05;1.60;;;1.48;;
6941;SDS011;3510;43.200;27.920;2023-05-10T10:38:37;1.13;;;1.00;;
6941;SDS011;3510;43.200;27.920;2023-05-10T10:41:28;1.02;;;1.02;;
6941;SDS011;3510;43.200;27.920;2023-05-10T10:46:58;1.17;;;1.17;;
6941;SDS011;3510;43.200;27.920;2023-05-10T10:49:29;2.55;;;1.38;;
6941;SDS011;3510;43.200;27.920;2023-05-10T10:54:40;1.35;;;1.23;;
6941;SDS011;3510;43.200;27.920;2023-05-10T10:57:10;1.17;;;1.17;;
6941;SDS011;3510;43.200;27.920;2023-05-10T10:59:41;3.10;;;1.30;;
6941;SDS011;3510;43.200;27.920;2023-05-10T11:02:09;1.80;;;1.70;;
6941;SDS011;3510;43.200;27.920;2023-05-10T11:04:45;1.20;;;1.20;;
6941;SDS011;3510;43.200;27.920;2023-05-10T11:07:19;2.08;;;1.45;;
6941;SDS011;3510;43.200;27.920;2023-05-10T11:09:46;1.02;;;1.02;;
6941;SDS011;3510;43.200;27.920;2023-05-10T11:12:13;1.23;;;1.23;;
6941;SDS011;3510;43.200;27.920;2023-05-10T11:14:40;1.42;;;1.33;;
6941;SDS011;3510;43.200;27.920;2023-05-10T11:22:48;3.13;;;1.35;;
6941;SDS011;3510;43.200;27.920;2023-05-10T11:25:16;1.50;;;1.40;;
6941;SDS011;3510;43.200;27.920;2023-05-10T11:27:43;1.63;;;1.52;;
6941;SDS011;3510;43.200;27.920;2023-05-10T11:30:10;2.40;;;1.50;;
6941;SDS011;3510;43.200;27.920;2023-05-10T11:32:37;2.60;;;1.75;;
6941;SDS011;3510;43.200;27.920;2023-05-10T11:35:08;1.48;;;1.45;;
6941;SDS011;3510;43.200;27.920;2023-05-10T11:37:36;1.30;;;1.30;;
6941;SDS011;3510;43.200;27.920;2023-05-10T11:40:06;2.05;;;1.38;;
6941;SDS011;3510;43.200;27.920;2023-05-10T11:42:35;1.58;;;1.48;;
6941;SDS011;3510;43.200;27.920;2023-05-10T11:45:03;1.00;;;1.00;;
6941;SDS011;3510;43.200;27.920;2023-05-10T11:47:30;1.27;;;1.27;;
6941;SDS011;3510;43.200;27.920;2023-05-10T11:49:57;1.98;;;1.10;;
6941;SDS011;3510;43.200;27.920;2023-05-10T11:52:26;9.27;;;2.05;;
6941;SDS011;3510;43.200;27.920;2023-05-10T11:54:54;1.67;;;1.35;;
6941;SDS011;3510;43.200;27.920;2023-05-10T11:57:26;1.20;;;1.20;;
6941;SDS011;3510;43.200;27.920;2023-05-10T11:59:56;1.67;;;1.60;;
6941;SDS011;3510;43.200;27.920;2023-05-10T12:02:23;1.60;;;1.60;;
6941;SDS011;3510;43.200;27.920;2023-05-10T12:04:50;1.48;;;1.35;;
6941;SDS011;3510;43.200;27.920;2023-05-10T12:07:17;1.50;;;1.50;;
6941;SDS011;3510;43.200;27.920;2023-05-10T12:09:55;1.88;;;1.58;;
6941;SDS011;3510;43.200;27.920;2023-05-10T12:12:37;1.70;;;1.60;;
6941;SDS011;3510;43.200;27.920;2023-05-10T12:15:10;1.80;;;1.77;;
6941;SDS011;3510;43.200;27.920;2023-05-10T12:17:37;1.80;;;1.70;;
6941;SDS011;3510;43.200;27.920;2023-05-10T12:20:13;1.63;;;1.52;;
6941;SDS011;3510;43.200;27.920;2023-05-10T12:22:43;1.15;;;1.15;;
6941;SDS011;3510;43.200;27.920;2023-05-10T12:25:12;1.80;;;1.70;;
6941;SDS011;3510;43.200;27.920;2023-05-10T12:27:39;1.77;;;1.67;;
6941;SDS011;3510;43.200;27.920;2023-05-10T12:30:06;1.65;;;1.55;;
6941;SDS011;3510;43.200;27.920;2023-05-10T12:32:40;5.03;;;1.80;;
6941;SDS011;3510;43.200;27.920;2023-05-10T12:35:07;4.03;;;1.80;;
6941;SDS011;3510;43.200;27.920;2023-05-10T12:37:35;1.25;;;1.25;;
6941;SDS011;3510;43.200;27.920;2023-05-10T12:40:06;1.52;;;1.48;;
6941;SDS011;3510;43.200;27.920;2023-05-10T12:42:35;1.70;;;1.60;;
6941;SDS011;3510;43.200;27.920;2023-05-10T12:45:03;1.55;;;1.45;;
6941;SDS011;3510;43.200;27.920;2023-05-10T12:47:31;1.60;;;1.50;;
6941;SDS011;3510;43.200;27.920;2023-05-10T12:49:57;1.48;;;1.48;;
6941;SDS011;3510;43.200;27.920;2023-05-10T12:52:25;1.38;;;1.35;;
6941;SDS011;3510;43.200;27.920;2023-05-10T12:54:51;1.65;;;1.55;;
6941;SDS011;3510;43.200;27.920;2023-05-10T12:57:19;1.10;;;1.10;;
6941;SDS011;3510;43.200;27.920;2023-05-10T12:59:47;1.67;;;1.60;;
6941;SDS011;3510;43.200;27.920;2023-05-10T13:02:14;1.25;;;1.25;;
6941;SDS011;3510;43.200;27.920;2023-05-10T13:04:43;1.38;;;1.38;;
6941;SDS011;3510;43.200;27.920;2023-05-10T13:07:11;1.13;;;1.13;;
6941;SDS011;3510;43.200;27.920;2023-05-10T13:09:38;1.20;;;1.20;;
6941;SDS011;3510;43.200;27.920;2023-05-10T13:12:06;1.10;;;1.10;;
6941;SDS011;3510;43.200;27.920;2023-05-10T13:14:32;2.25;;;1.17;;
6941;SDS011;3510;43.200;27.920;2023-05-10T13:17:00;1.15;;;1.05;;
6941;SDS011;3510;43.200;27.920;2023-05-10T13:19:27;3.42;;;1.30;;
6941;SDS011;3510;43.200;27.920;2023-05-10T13:21:57;1.65;;;1.30;;
6941;SDS011;3510;43.200;27.920;2023-05-10T13:24:26;1.30;;;1.20;;
6941;SDS011;3510;43.200;27.920;2023-05-10T13:26:53;1.50;;;1.40;;
6941;SDS011;3510;43.200;27.920;2023-05-10T13:29:22;1.17;;;1.10;;
6941;SDS011;3510;43.200;27.920;2023-05-10T13:31:49;1.10;;;1.10;;
6941;SDS011;3510;43.200;27.920;2023-05-10T13:34:17;1.33;;;1.23;;
6941;SDS011;3510;43.200;27.920;2023-05-10T13:39:21;1.02;;;1.02;;
6941;SDS011;3510;43.200;27.920;2023-05-10T13:42:02;1.38;;;1.33;;
6941;SDS011;3510;43.200;27.920;2023-05-10T13:44:29;7.63;;;1.15;;
6941;SDS011;3510;43.200;27.920;2023-05-10T13:46:59;1.08;;;1.05;;
6941;SDS011;3510;43.200;27.920;2023-05-10T13:52:03;1.15;;;1.10;;
6941;SDS011;3510;43.200;27.920;2023-05-10T13:59:42;1.15;;;1.15;;
6941;SDS011;3510;43.200;27.920;2023-05-10T14:02:18;1.13;;;1.13;;
6941;SDS011;3510;43.200;27.920;2023-05-10T14:04:59;1.48;;;1.38;;
6941;SDS011;3510;43.200;27.920;2023-05-10T14:07:31;1.27;;;1.27;;
6941;SDS011;3510;43.200;27.920;2023-05-10T14:09:58;1.48;;;1.48;;
6941;SDS011;3510;43.200;27.920;2023-05-10T14:12:25;1.13;;;1.10;;
6941;SDS011;3510;43.200;27.920;2023-05-10T14:14:54;1.60;;;1.55;;
6941;SDS011;3510;43.200;27.920;2023-05-10T14:17:23;1.58;;;1.50;;
6941;SDS011;3510;43.200;27.920;2023-05-10T14:19:49;1.20;;;1.20;;
6941;SDS011;3510;43.200;27.920;2023-05-10T14:22:16;1.50;;;1.40;;
6941;SDS011;3510;43.200;27.920;2023-05-10T14:24:45;1.33;;;1.10;;
6941;SDS011;3510;43.200;27.920;2023-05-10T14:27:12;1.45;;;1.35;;
6941;SDS011;3510;43.200;27.920;2023-05-10T14:29:39;1.10;;;1.10;;
6941;SDS011;3510;43.200;27.920;2023-05-10T14:32:07;1.40;;;1.40;;
6941;SDS011;3510;43.200;27.920;2023-05-10T14:34:35;1.73;;;1.63;;
6941;SDS011;3510;43.200;27.920;2023-05-10T14:37:02;1.27;;;1.27;;
6941;SDS011;3510;43.200;27.920;2023-05-10T14:39:30;1.85;;;1.75;;
6941;SDS011;3510;43.200;27.920;2023-05-10T14:42:15;1.50;;;1.40;;
6941;SDS011;3510;43.200;27.920;2023-05-10T14:44:56;1.40;;;1.30;;
6941;SDS011;3510;43.200;27.920;2023-05-10T14:47:24;1.40;;;1.40;;
6941;SDS011;3510;43.200;27.920;2023-05-10T14:50:05;1.27;;;1.27;;
6941;SDS011;3510;43.200;27.920;2023-05-10T14:52:37;1.63;;;1.50;;
6941;SDS011;3510;43.200;27.920;2023-05-10T14:55:07;1.35;;;1.35;;
6941;SDS011;3510;43.200;27.920;2023-05-10T15:18:57;1.85;;;1.75;;
6941;SDS011;3510;43.200;27.920;2023-05-10T15:21:24;1.70;;;1.60;;
6941;SDS011;3510;43.200;27.920;2023-05-10T15:39:34;1.60;;;1.50;;
6941;SDS011;3510;43.200;27.920;2023-05-10T15:42:02;1.73;;;1.63;;
6941;SDS011;3510;43.200;27.920;2023-05-10T15:44:31;1.90;;;1.80;;
6941;SDS011;3510;43.200;27.920;2023-05-10T15:47:00;1.95;;;1.50;;
6941;SDS011;3510;43.200;27.920;2023-05-10T15:49:28;1.38;;;1.35;;
6941;SDS011;3510;43.200;27.920;2023-05-10T15:51:59;1.70;;;1.60;;
6941;SDS011;3510;43.200;27.920;2023-05-10T15:54:26;1.58;;;1.48;;
6941;SDS011;3510;43.200;27.920;2023-05-10T15:56:59;2.95;;;1.50;;
6941;SDS011;3510;43.200;27.920;2023-05-10T15:59:26;1.40;;;1.40;;
6941;SDS011;3510;43.200;27.920;2023-05-10T16:01:56;1.77;;;1.65;;
6941;SDS011;3510;43.200;27.920;2023-05-10T16:04:37;1.80;;;1.65;;
6941;SDS011;3510;43.200;27.920;2023-05-10T16:07:04;1.27;;;1.27;;
6941;SDS011;3510;43.200;27.920;2023-05-10T16:09:34;1.50;;;1.40;;
6941;SDS011;3510;43.200;27.920;2023-05-10T16:12:13;3.33;;;1.55;;
6941;SDS011;3510;43.200;27.920;2023-05-10T16:14:40;1.50;;;1.40;;
6941;SDS011;3510;43.200;27.920;2023-05-10T16:17:15;1.40;;;1.40;;
6941;SDS011;3510;43.200;27.920;2023-05-10T16:19:53;3.28;;;1.60;;
6941;SDS011;3510;43.200;27.920;2023-05-10T16:22:21;1.20;;;1.20;;
6941;SDS011;3510;43.200;27.920;2023-05-10T16:24:51;2.40;;;1.10;;
6941;SDS011;3510;43.200;27.920;2023-05-10T16:27:21;1.38;;;1.30;;
6941;SDS011;3510;43.200;27.920;2023-05-10T16:29:48;1.17;;;1.17;;
6941;SDS011;3510;43.200;27.920;2023-05-10T16:32:15;2.00;;;1.58;;
6941;SDS011;3510;43.200;27.920;2023-05-10T16:34:43;3.88;;;1.48;;
6941;SDS011;3510;43.200;27.920;2023-05-10T16:37:10;1.50;;;1.40;;
6941;SDS011;3510;43.200;27.920;2023-05-10T16:39:37;1.52;;;1.42;;
6941;SDS011;3510;43.200;27.920;2023-05-10T16:42:04;1.30;;;1.30;;
6941;SDS011;3510;43.200;27.920;2023-05-10T16:44:47;1.30;;;1.30;;
6941;SDS011;3510;43.200;27.920;2023-05-10T16:47:14;2.47;;;1.27;;
6941;SDS011;3510;43.200;27.920;2023-05-10T16:52:17;1.48;;;1.38;;
6941;SDS011;3510;43.200;27.920;2023-05-10T17:02:38;1.10;;;1.10;;
6941;SDS011;3510;43.200;27.920;2023-05-10T17:05:05;1.63;;;1.30;;
6941;SDS011;3510;43.200;27.920;2023-05-10T17:07:33;1.60;;;1.50;;
6941;SDS011;3510;43.200;27.920;2023-05-10T17:10:05;2.00;;;1.80;;
6941;SDS011;3510;43.200;27.920;2023-05-10T17:12:34;1.98;;;1.88;;
6941;SDS011;3510;43.200;27.920;2023-05-10T17:15:05;1.40;;;1.30;;
